createdAt,value
2017-07-22T00:01:40.318Z,2.83
2017-07-22T00:04:07.705Z,2.60
2017-07-22T00:06:35.095Z,2.07
2017-07-22T00:09:02.484Z,2.83
2017-07-22T00:11:29.866Z,2.60
2017-07-22T00:13:57.298Z,2.27
2017-07-22T00:16:24.911Z,2.63
2017-07-22T00:18:52.297Z,2.77
2017-07-22T00:21:19.679Z,2.50
2017-07-22T00:23:47.070Z,3.10
2017-07-22T00:26:14.459Z,2.50
2017-07-22T00:28:41.855Z,3.37
2017-07-22T00:31:09.234Z,2.37
2017-07-22T00:33:36.626Z,2.73
2017-07-22T00:36:04.226Z,2.77
2017-07-22T00:38:31.616Z,2.83
2017-07-22T00:40:59.003Z,2.90
2017-07-22T00:43:26.394Z,2.90
2017-07-22T00:45:53.810Z,3.40
2017-07-22T00:48:21.208Z,2.77
2017-07-22T00:50:48.587Z,3.20
2017-07-22T00:53:15.974Z,3.00
2017-07-22T00:55:43.371Z,3.10
2017-07-22T00:58:10.781Z,2.90
2017-07-22T01:00:38.169Z,2.60
2017-07-22T01:03:05.558Z,2.83
2017-07-22T01:05:32.949Z,3.40
2017-07-22T01:08:00.336Z,3.10
2017-07-22T01:12:52.926Z,2.83
2017-07-22T01:15:20.317Z,3.27
2017-07-22T01:17:47.703Z,3.40
2017-07-22T01:20:15.091Z,3.20
2017-07-22T01:22:42.495Z,3.90
2017-07-22T01:25:09.887Z,3.13
2017-07-22T01:27:37.270Z,2.63
2017-07-22T01:30:04.672Z,3.63
2017-07-22T01:32:32.058Z,3.90
2017-07-22T01:34:59.451Z,3.10
2017-07-22T01:37:26.838Z,3.57
2017-07-22T01:39:54.238Z,3.47
2017-07-22T01:42:21.637Z,3.50
2017-07-22T01:44:49.035Z,3.50
2017-07-22T01:47:16.410Z,3.77
2017-07-22T01:49:43.811Z,3.30
2017-07-22T01:52:11.191Z,3.30
2017-07-22T01:54:38.596Z,4.10
2017-07-22T01:57:05.986Z,3.83
2017-07-22T01:59:33.382Z,3.47
2017-07-22T02:02:00.766Z,4.07
2017-07-22T02:04:28.163Z,3.67
2017-07-22T02:06:55.549Z,3.40
2017-07-22T02:09:22.947Z,3.57
2017-07-22T02:11:50.336Z,4.13
2017-07-22T02:14:17.743Z,3.73
2017-07-22T02:16:46.014Z,3.50
2017-07-22T02:19:13.406Z,3.07
2017-07-22T02:21:40.810Z,3.20
2017-07-22T02:24:08.194Z,4.13
2017-07-22T02:26:35.573Z,3.90
2017-07-22T02:29:02.970Z,3.53
2017-07-22T02:31:30.363Z,4.00
2017-07-22T02:33:57.759Z,3.00
2017-07-22T02:36:25.156Z,3.00
2017-07-22T02:38:52.548Z,3.80
2017-07-22T02:41:19.930Z,3.57
2017-07-22T02:43:47.316Z,2.93
2017-07-22T02:46:14.711Z,3.83
2017-07-22T02:48:42.103Z,3.83
2017-07-22T02:51:09.495Z,3.50
2017-07-22T02:53:36.895Z,4.10
2017-07-22T02:56:04.287Z,4.27
2017-07-22T02:58:31.675Z,4.13
2017-07-22T03:00:59.067Z,3.83
2017-07-22T03:03:26.454Z,3.70
2017-07-22T03:05:53.849Z,3.30
2017-07-22T03:08:21.245Z,4.33
2017-07-22T03:10:48.630Z,4.20
2017-07-22T03:13:16.012Z,4.20
2017-07-22T03:15:43.415Z,4.87
2017-07-22T03:18:10.817Z,4.77
2017-07-22T03:20:38.202Z,4.43
2017-07-22T03:23:05.590Z,4.40
2017-07-22T03:25:32.983Z,5.00
2017-07-22T03:28:00.378Z,4.80
2017-07-22T03:30:28.045Z,4.30
2017-07-22T03:32:55.427Z,4.30
2017-07-22T03:35:22.815Z,4.83
2017-07-22T03:37:50.199Z,5.07
2017-07-22T03:40:17.871Z,5.30
2017-07-22T03:42:45.462Z,4.63
2017-07-22T03:45:12.867Z,5.30
2017-07-22T03:47:40.251Z,4.77
2017-07-22T03:50:07.900Z,6.23
2017-07-22T03:52:41.043Z,4.90
2017-07-22T03:55:08.450Z,5.30
2017-07-22T03:57:35.832Z,5.20
2017-07-22T04:00:03.234Z,5.27
2017-07-22T04:02:30.618Z,5.33
2017-07-22T04:04:58.014Z,6.50
2017-07-22T04:07:25.412Z,6.50
2017-07-22T04:09:53.011Z,5.90
2017-07-22T04:12:20.405Z,5.27
2017-07-22T04:14:47.793Z,5.43
2017-07-22T04:17:15.186Z,6.67
2017-07-22T04:19:42.570Z,5.73
2017-07-22T04:22:09.968Z,6.30
2017-07-22T04:24:37.359Z,5.60
2017-07-22T04:27:04.759Z,5.33
2017-07-22T04:29:32.153Z,6.33
2017-07-22T04:31:59.543Z,6.27
2017-07-22T04:34:26.932Z,5.90
2017-07-22T04:36:54.327Z,6.70
2017-07-22T04:39:21.710Z,6.87
2017-07-22T04:41:49.105Z,5.60
2017-07-22T04:44:16.716Z,6.50
2017-07-22T04:46:44.116Z,7.80
2017-07-22T04:49:11.719Z,6.27
2017-07-22T04:51:39.118Z,7.40
2017-07-22T04:54:06.502Z,6.23
2017-07-22T04:56:33.903Z,6.23
2017-07-22T04:59:01.287Z,6.83
2017-07-22T05:01:28.681Z,6.10
2017-07-22T05:03:56.066Z,7.77
2017-07-22T05:06:23.768Z,7.77
2017-07-22T05:08:51.149Z,7.37
2017-07-22T05:11:18.554Z,8.27
2017-07-22T05:13:45.952Z,8.00
2017-07-22T05:16:13.363Z,8.20
2017-07-22T05:18:40.751Z,8.90
2017-07-22T05:21:08.408Z,8.53
2017-07-22T05:23:35.798Z,8.53
2017-07-22T05:26:03.191Z,9.43
2017-07-22T05:28:30.592Z,8.70
2017-07-22T05:30:57.988Z,9.33
2017-07-22T05:33:25.380Z,9.17
2017-07-22T05:35:52.768Z,8.97
2017-07-22T05:38:20.166Z,9.20
2017-07-22T05:40:47.550Z,9.00
2017-07-22T05:43:14.950Z,9.37
2017-07-22T05:45:42.342Z,8.93
2017-07-22T05:48:09.754Z,9.60
2017-07-22T05:50:37.146Z,8.70
2017-07-22T05:53:04.546Z,9.80
2017-07-22T05:55:31.943Z,9.97
2017-07-22T05:57:59.339Z,9.53
2017-07-22T06:00:26.740Z,8.77
2017-07-22T06:02:54.135Z,11.30
2017-07-22T06:05:21.530Z,10.27
2017-07-22T06:07:48.927Z,9.80
2017-07-22T06:10:16.615Z,9.10
2017-07-22T06:12:44.018Z,10.47
2017-07-22T06:15:11.429Z,10.17
2017-07-22T06:17:38.827Z,9.80
2017-07-22T06:20:06.227Z,11.00
2017-07-22T06:22:33.625Z,10.13
2017-07-22T06:25:01.022Z,10.43
2017-07-22T06:27:28.707Z,8.97
2017-07-22T06:29:56.107Z,10.00
2017-07-22T06:32:23.527Z,10.30
2017-07-22T06:34:50.923Z,10.30
2017-07-22T06:37:18.315Z,11.07
2017-07-22T06:39:45.719Z,10.20
2017-07-22T06:42:13.346Z,11.40
2017-07-22T06:44:40.746Z,9.90
2017-07-22T06:47:08.355Z,10.57
2017-07-22T06:49:35.758Z,10.60
2017-07-22T06:52:03.154Z,9.87
2017-07-22T06:54:30.559Z,10.23
2017-07-22T06:56:57.942Z,9.80
2017-07-22T06:59:25.344Z,10.13
2017-07-22T07:01:52.734Z,10.10
2017-07-22T07:04:20.130Z,11.40
2017-07-22T07:06:47.535Z,12.43
2017-07-22T07:09:14.999Z,10.67
2017-07-22T07:11:42.374Z,10.77
2017-07-22T07:14:09.775Z,9.70
2017-07-22T07:16:37.171Z,10.00
2017-07-22T07:19:04.597Z,11.03
2017-07-22T07:21:31.966Z,9.40
2017-07-22T07:23:59.367Z,9.60
2017-07-22T07:26:26.754Z,9.47
2017-07-22T07:28:54.154Z,8.80
2017-07-22T07:31:21.547Z,9.00
2017-07-22T07:33:48.944Z,10.37
2017-07-22T07:36:16.339Z,8.10
2017-07-22T07:38:43.737Z,9.63
2017-07-22T07:41:11.118Z,9.47
2017-07-22T07:43:38.506Z,8.70
2017-07-22T07:46:05.903Z,8.33
2017-07-22T07:48:33.331Z,9.67
2017-07-22T07:51:00.771Z,9.27
2017-07-22T07:53:28.161Z,9.30
2017-07-22T07:55:55.562Z,8.77
2017-07-22T07:58:22.946Z,7.77
2017-07-22T08:00:50.342Z,9.13
2017-07-22T08:03:19.159Z,9.33
2017-07-22T08:05:46.546Z,8.97
2017-07-22T08:08:13.939Z,7.77
2017-07-22T08:10:41.338Z,8.40
2017-07-22T08:13:08.730Z,10.33
2017-07-22T08:15:36.126Z,8.90
2017-07-22T08:18:03.509Z,7.97
2017-07-22T08:20:30.919Z,8.37
2017-07-22T08:22:58.311Z,7.97
2017-07-22T08:25:25.734Z,8.50
2017-07-22T08:27:53.131Z,8.80
2017-07-22T08:30:20.564Z,9.60
2017-07-22T08:32:47.946Z,8.70
2017-07-22T08:35:15.343Z,7.90
2017-07-22T08:37:42.754Z,9.70
2017-07-22T08:40:10.458Z,10.60
2017-07-22T08:42:38.123Z,10.23
2017-07-22T08:45:05.545Z,12.33
2017-07-22T08:47:33.226Z,11.20
2017-07-22T08:50:00.635Z,11.83
2017-07-22T08:52:28.030Z,12.47
2017-07-22T08:54:55.431Z,12.47
2017-07-22T08:57:23.034Z,13.70
2017-07-22T08:59:50.717Z,12.77
2017-07-22T09:02:18.106Z,14.10
2017-07-22T09:04:45.523Z,12.20
2017-07-22T09:07:12.946Z,11.53
2017-07-22T09:09:40.353Z,13.60
2017-07-22T09:12:08.000Z,12.20
2017-07-22T09:14:35.391Z,12.33
2017-07-22T09:17:02.790Z,12.07
2017-07-22T09:19:30.185Z,11.33
2017-07-22T09:21:57.822Z,14.10
2017-07-22T09:24:25.221Z,16.77
2017-07-22T09:26:52.618Z,14.67
2017-07-22T09:29:20.016Z,13.10
2017-07-22T09:31:47.485Z,14.63
2017-07-22T09:34:14.868Z,12.60
2017-07-22T09:36:42.274Z,12.90
2017-07-22T09:39:09.675Z,11.93
2017-07-22T09:41:37.085Z,10.70
2017-07-22T09:44:04.493Z,14.70
2017-07-22T09:46:31.883Z,12.90
2017-07-22T09:48:59.278Z,15.13
2017-07-22T09:51:26.689Z,11.43
2017-07-22T09:53:54.083Z,12.47
2017-07-22T09:56:21.486Z,11.47
2017-07-22T09:58:49.034Z,11.60
2017-07-22T10:01:16.423Z,11.30
2017-07-22T10:03:43.819Z,11.27
2017-07-22T10:06:11.218Z,14.60
2017-07-22T10:08:38.618Z,10.63
2017-07-22T10:11:06.021Z,11.67
2017-07-22T10:13:33.425Z,12.73
2017-07-22T10:16:00.826Z,11.67
2017-07-22T10:18:28.218Z,9.77
2017-07-22T10:20:55.619Z,12.90
2017-07-22T10:23:23.010Z,10.43
2017-07-22T10:25:50.406Z,11.87
2017-07-22T10:28:17.822Z,10.90
2017-07-22T10:30:45.211Z,12.70
2017-07-22T10:33:12.617Z,12.30
2017-07-22T10:35:40.011Z,10.87
2017-07-22T10:38:07.415Z,11.00
2017-07-22T10:40:34.802Z,10.80
2017-07-22T10:43:02.198Z,9.50
2017-07-22T10:45:29.602Z,10.60
2017-07-22T10:47:56.989Z,9.67
2017-07-22T10:50:24.374Z,8.80
2017-07-22T10:52:51.767Z,8.13
2017-07-22T10:55:19.163Z,7.63
2017-07-22T10:57:46.551Z,6.50
2017-07-22T11:00:13.933Z,7.63
2017-07-22T11:02:41.326Z,6.30
2017-07-22T11:05:08.719Z,7.53
2017-07-22T11:07:36.115Z,7.00
2017-07-22T11:10:03.506Z,6.60
2017-07-22T11:12:30.894Z,6.70
2017-07-22T11:14:58.280Z,8.23
2017-07-22T11:17:25.666Z,8.90
2017-07-22T11:19:53.070Z,10.50
2017-07-22T11:22:20.463Z,9.47
2017-07-22T11:24:47.851Z,9.37
2017-07-22T11:27:15.250Z,10.57
2017-07-22T11:29:42.644Z,9.37
2017-07-22T11:32:10.039Z,9.10
2017-07-22T11:34:37.427Z,5.60
2017-07-22T11:37:04.816Z,6.20
2017-07-22T11:39:32.210Z,6.30
2017-07-22T11:41:59.598Z,6.90
2017-07-22T11:44:27.001Z,8.23
2017-07-22T11:46:54.386Z,7.13
2017-07-22T11:49:21.774Z,9.23
2017-07-22T11:51:49.180Z,8.87
2017-07-22T11:56:40.848Z,7.90
2017-07-22T11:59:08.495Z,11.00
2017-07-22T12:01:35.886Z,9.60
2017-07-22T12:04:03.285Z,8.60
2017-07-22T12:06:30.683Z,8.13
2017-07-22T12:08:58.319Z,8.90
2017-07-22T12:11:25.714Z,10.50
2017-07-22T12:13:53.114Z,7.83
2017-07-22T12:16:20.507Z,9.17
2017-07-22T12:18:47.906Z,9.83
2017-07-22T12:21:15.303Z,10.37
2017-07-22T12:23:42.699Z,8.77
2017-07-22T12:26:10.087Z,7.33
2017-07-22T12:28:37.474Z,7.27
2017-07-22T12:31:04.871Z,6.97
2017-07-22T12:33:32.265Z,7.70
2017-07-22T12:35:59.650Z,7.57
2017-07-22T12:38:27.054Z,8.20
2017-07-22T12:40:54.443Z,8.93
2017-07-22T12:43:21.849Z,7.70
2017-07-22T12:45:49.234Z,8.07
2017-07-22T12:48:16.650Z,8.23
2017-07-22T12:50:44.044Z,7.37
2017-07-22T12:53:11.431Z,7.97
2017-07-22T12:55:38.823Z,7.80
2017-07-22T12:58:06.216Z,7.60
2017-07-22T13:00:33.611Z,7.90
2017-07-22T13:03:00.998Z,9.27
2017-07-22T13:05:28.695Z,9.07
2017-07-22T13:07:56.079Z,8.43
2017-07-22T13:10:23.485Z,8.60
2017-07-22T13:12:50.876Z,8.73
2017-07-22T13:15:18.275Z,8.00
2017-07-22T13:17:45.665Z,7.87
2017-07-22T13:20:13.058Z,9.03
2017-07-22T13:22:40.459Z,8.77
2017-07-22T13:25:07.867Z,8.67
2017-07-22T13:27:35.336Z,8.40
2017-07-22T13:30:02.906Z,8.43
2017-07-22T13:32:30.298Z,8.00
2017-07-22T13:34:57.690Z,9.50
2017-07-22T13:37:25.124Z,8.63
2017-07-22T13:39:52.613Z,9.70
2017-07-22T13:42:20.075Z,10.60
2017-07-22T13:44:47.482Z,9.67
2017-07-22T13:47:14.880Z,9.83
2017-07-22T13:49:42.340Z,9.63
2017-07-22T13:52:09.805Z,11.43
2017-07-22T13:54:37.203Z,9.93
2017-07-22T13:57:04.657Z,12.13
2017-07-22T13:59:32.061Z,10.10
2017-07-22T14:01:59.461Z,10.00
2017-07-22T14:04:26.999Z,11.30
2017-07-22T14:06:54.399Z,10.00
2017-07-22T14:09:21.790Z,10.47
2017-07-22T14:11:49.202Z,10.47
2017-07-22T14:14:16.612Z,12.63
2017-07-22T14:16:44.010Z,12.90
2017-07-22T14:19:11.414Z,13.90
2017-07-22T14:21:38.806Z,15.27
2017-07-22T14:24:06.489Z,15.47
2017-07-22T14:26:33.895Z,16.00
2017-07-22T14:29:01.291Z,13.63
2017-07-22T14:31:28.698Z,11.63
2017-07-22T14:33:56.100Z,11.80
2017-07-22T14:36:23.519Z,12.20
2017-07-22T14:38:50.933Z,11.77
2017-07-22T14:41:18.338Z,11.67
2017-07-22T14:43:45.752Z,10.63
2017-07-22T14:46:13.172Z,12.10
2017-07-22T14:48:40.590Z,12.10
2017-07-22T14:51:07.995Z,10.10
2017-07-22T14:53:35.391Z,11.60
2017-07-22T14:56:02.802Z,11.90
2017-07-22T14:58:30.208Z,12.00
2017-07-22T15:00:57.611Z,11.20
2017-07-22T15:03:25.011Z,11.30
2017-07-22T15:05:52.430Z,11.10
2017-07-22T15:08:19.823Z,12.50
2017-07-22T15:10:47.228Z,11.90
2017-07-22T15:13:14.624Z,10.77
2017-07-22T15:15:42.032Z,11.20
2017-07-22T15:18:09.440Z,11.90
2017-07-22T15:20:36.834Z,11.87
2017-07-22T15:23:04.237Z,11.67
2017-07-22T15:25:31.639Z,10.07
2017-07-22T15:27:59.046Z,10.47
2017-07-22T15:30:26.435Z,9.67
2017-07-22T15:32:53.840Z,10.80
2017-07-22T15:35:21.246Z,10.43
2017-07-22T15:37:48.646Z,10.90
2017-07-22T15:40:16.064Z,12.20
2017-07-22T15:42:43.501Z,11.37
2017-07-22T15:45:10.883Z,12.03
2017-07-22T15:47:38.286Z,11.10
2017-07-22T15:50:05.690Z,11.77
2017-07-22T15:52:33.090Z,12.30
2017-07-22T15:55:00.488Z,12.10
2017-07-22T15:57:27.892Z,10.80
2017-07-22T15:59:55.287Z,12.20
2017-07-22T16:02:22.711Z,11.70
2017-07-22T16:04:50.103Z,12.80
2017-07-22T16:07:17.508Z,13.50
2017-07-22T16:09:44.902Z,11.93
2017-07-22T16:12:12.311Z,12.63
2017-07-22T16:14:39.706Z,12.87
2017-07-22T16:17:07.105Z,13.23
2017-07-22T16:19:34.508Z,13.30
2017-07-22T16:22:02.090Z,13.10
2017-07-22T16:24:29.470Z,13.33
2017-07-22T16:26:56.867Z,13.00
2017-07-22T16:29:24.258Z,12.90
2017-07-22T16:31:51.675Z,12.10
2017-07-22T16:34:19.067Z,12.47
2017-07-22T16:36:46.462Z,12.50
2017-07-22T16:39:13.869Z,15.13
2017-07-22T16:41:41.262Z,13.10
2017-07-22T16:44:08.658Z,13.13
2017-07-22T16:46:36.053Z,13.30
2017-07-22T16:49:03.462Z,13.40
2017-07-22T16:51:30.846Z,14.70
2017-07-22T16:53:58.287Z,14.50
2017-07-22T16:56:25.684Z,13.80
2017-07-22T16:58:53.091Z,14.37
2017-07-22T17:01:20.506Z,13.87
2017-07-22T17:03:47.920Z,13.23
2017-07-22T17:06:15.320Z,15.13
2017-07-22T17:08:42.722Z,14.20
2017-07-22T17:11:10.132Z,13.83
2017-07-22T17:13:37.531Z,12.90
2017-07-22T17:16:04.912Z,13.00
2017-07-22T17:18:32.313Z,13.43
2017-07-22T17:20:59.701Z,12.70
2017-07-22T17:23:27.104Z,13.33
2017-07-22T17:25:54.504Z,13.93
2017-07-22T17:28:21.903Z,12.40
2017-07-22T17:30:49.299Z,13.47
2017-07-22T17:33:16.698Z,13.50
2017-07-22T17:35:44.109Z,13.03
2017-07-22T17:38:11.516Z,14.73
2017-07-22T17:40:38.931Z,14.60
2017-07-22T17:43:06.330Z,14.07
2017-07-22T17:45:33.727Z,13.57
2017-07-22T17:48:01.151Z,13.30
2017-07-22T17:50:28.546Z,13.77
2017-07-22T17:52:55.946Z,12.83
2017-07-22T17:55:23.348Z,12.27
2017-07-22T17:57:50.742Z,13.13
2017-07-22T18:00:18.151Z,12.70
2017-07-22T18:02:45.544Z,13.10
2017-07-22T18:05:12.943Z,12.77
2017-07-22T18:07:40.339Z,11.53
2017-07-22T18:10:07.747Z,13.17
2017-07-22T18:12:35.151Z,13.60
2017-07-22T18:15:02.559Z,13.13
2017-07-22T18:17:29.951Z,13.90
2017-07-22T18:19:57.363Z,13.27
2017-07-22T18:22:24.770Z,12.80
2017-07-22T18:24:52.171Z,12.37
2017-07-22T18:27:19.567Z,12.40
2017-07-22T18:29:46.965Z,12.63
2017-07-22T18:32:14.366Z,12.53
2017-07-22T18:34:41.771Z,14.37
2017-07-22T18:37:09.173Z,14.90
2017-07-22T18:39:36.579Z,14.73
2017-07-22T18:42:03.982Z,14.13
2017-07-22T18:44:31.370Z,16.00
2017-07-22T18:46:58.766Z,15.33
2017-07-22T18:49:26.166Z,14.10
2017-07-22T18:51:53.567Z,14.60
2017-07-22T18:54:20.976Z,15.33
2017-07-22T18:56:48.370Z,14.63
2017-07-22T18:59:15.767Z,15.50
2017-07-22T19:01:43.170Z,15.33
2017-07-22T19:04:10.604Z,15.90
2017-07-22T19:06:38.024Z,14.53
2017-07-22T19:09:05.418Z,15.93
2017-07-22T19:11:32.819Z,14.43
2017-07-22T19:14:00.222Z,15.23
2017-07-22T19:16:27.631Z,14.70
2017-07-22T19:18:55.030Z,16.20
2017-07-22T19:21:22.427Z,15.30
2017-07-22T19:23:49.852Z,15.13
2017-07-22T19:26:17.259Z,16.33
2017-07-22T19:28:44.663Z,15.60
2017-07-22T19:31:12.076Z,15.23
2017-07-22T19:33:39.487Z,14.70
2017-07-22T19:36:06.891Z,15.10
2017-07-22T19:38:34.294Z,15.13
2017-07-22T19:41:01.698Z,15.30
2017-07-22T19:43:29.086Z,16.53
2017-07-22T19:45:56.481Z,15.73
2017-07-22T19:48:23.882Z,15.83
2017-07-22T19:50:51.292Z,15.93
2017-07-22T19:53:18.686Z,15.50
2017-07-22T19:55:46.090Z,17.60
2017-07-22T19:58:13.491Z,17.77
2017-07-22T20:00:40.910Z,14.80
2017-07-22T20:03:08.344Z,16.80
2017-07-22T20:05:35.745Z,16.00
2017-07-22T20:08:03.148Z,15.90
2017-07-22T20:10:30.574Z,16.70
2017-07-22T20:12:57.950Z,17.03
2017-07-22T20:15:25.623Z,15.40
2017-07-22T20:17:53.014Z,15.90
2017-07-22T20:20:20.438Z,15.67
2017-07-22T20:22:47.826Z,17.77
2017-07-22T20:25:15.231Z,16.03
2017-07-22T20:27:42.630Z,16.67
2017-07-22T20:30:10.046Z,19.10
2017-07-22T20:32:37.454Z,18.43
2017-07-22T20:35:04.862Z,15.60
2017-07-22T20:37:32.269Z,17.27
2017-07-22T20:39:59.686Z,17.10
2017-07-22T20:42:27.083Z,18.13
2017-07-22T20:44:54.899Z,17.50
2017-07-22T20:47:22.298Z,17.70
2017-07-22T20:49:49.718Z,16.70
2017-07-22T20:52:17.113Z,16.10
2017-07-22T20:54:44.510Z,17.30
2017-07-22T20:57:11.918Z,19.23
2017-07-22T20:59:39.309Z,16.63
2017-07-22T21:02:06.706Z,17.63
2017-07-22T21:04:34.098Z,19.50
2017-07-22T21:07:01.514Z,18.30
2017-07-22T21:09:28.911Z,20.83
2017-07-22T21:11:56.310Z,18.60
2017-07-22T21:14:23.711Z,19.73
2017-07-22T21:16:51.112Z,19.43
2017-07-22T21:19:18.507Z,19.10
2017-07-22T21:21:45.918Z,21.90
2017-07-22T21:24:13.336Z,21.47
2017-07-22T21:26:40.739Z,21.37
2017-07-22T21:29:08.150Z,20.17
2017-07-22T21:31:35.858Z,21.23
2017-07-22T21:34:03.256Z,21.70
2017-07-22T21:36:30.664Z,22.77
2017-07-22T21:38:58.331Z,22.10
2017-07-22T21:41:25.727Z,21.07
2017-07-22T21:43:53.137Z,19.60
2017-07-22T21:46:20.537Z,21.77
2017-07-22T21:48:47.935Z,19.87
2017-07-22T21:51:15.339Z,21.83
2017-07-22T21:53:42.755Z,22.90
2017-07-22T21:56:10.134Z,22.90
2017-07-22T21:58:37.571Z,22.87
2017-07-22T22:01:04.955Z,21.87
2017-07-22T22:03:32.587Z,21.30
2017-07-22T22:06:00.251Z,22.57
2017-07-22T22:08:27.666Z,24.17
2017-07-22T22:10:55.065Z,22.77
2017-07-22T22:13:22.480Z,22.73
2017-07-22T22:15:49.899Z,22.13
2017-07-22T22:18:17.332Z,22.40
2017-07-22T22:20:44.727Z,21.23
2017-07-22T22:23:12.442Z,22.77
2017-07-22T22:25:39.853Z,21.27
2017-07-22T22:28:07.272Z,23.80
2017-07-22T22:30:34.670Z,22.07
2017-07-22T22:33:02.086Z,22.03
2017-07-22T22:35:29.470Z,22.30
2017-07-22T22:37:56.878Z,24.53
2017-07-22T22:40:24.275Z,22.17
2017-07-22T22:42:51.687Z,20.70
2017-07-22T22:45:19.082Z,21.53
2017-07-22T22:47:46.489Z,23.43
2017-07-22T22:50:13.899Z,23.17
2017-07-22T22:52:41.307Z,24.53
2017-07-22T22:55:08.704Z,22.63
2017-07-22T22:57:36.098Z,23.07
2017-07-22T23:00:03.519Z,22.53
2017-07-22T23:02:30.926Z,24.47
2017-07-22T23:04:58.327Z,23.70
2017-07-22T23:07:25.718Z,24.43
2017-07-22T23:09:53.127Z,22.60
2017-07-22T23:12:20.519Z,26.60
2017-07-22T23:14:48.216Z,23.53
2017-07-22T23:17:15.619Z,23.07
2017-07-22T23:19:43.022Z,25.50
2017-07-22T23:22:10.425Z,22.73
2017-07-22T23:24:37.826Z,26.70
2017-07-22T23:27:05.224Z,24.50
2017-07-22T23:29:32.618Z,24.17
2017-07-22T23:32:00.012Z,25.73
2017-07-22T23:34:27.427Z,27.77
2017-07-22T23:36:54.819Z,26.53
2017-07-22T23:39:22.225Z,24.70
2017-07-22T23:41:49.620Z,27.10
2017-07-22T23:44:17.023Z,25.77
2017-07-22T23:46:45.390Z,25.20
2017-07-22T23:49:13.019Z,25.97
2017-07-22T23:51:40.410Z,25.47
2017-07-22T23:54:07.814Z,25.83
2017-07-22T23:56:35.217Z,26.10
2017-07-22T23:59:02.630Z,21.80
